Time;durP1;ratioP1;P1;durP2;ratioP2;P2;SDS_P1;SDS_P2;PMS_P1;PMS_P2;Temp;Humidity;BMP_temperature;BMP_pressure;BME280_temperature;BME280_humidity;BME280_pressure;Samples;Min_cycle;Max_cycle;Signal;HPM_P1;HPM_P2
2022/11/07 00:00:11;;;;;;;28.77;16.80;;;16.40;68.10;;;;;;5082039;28;20031;-91
2022/11/07 00:02:37;;;;;;;32.55;16.55;;;16.80;66.50;;;;;;5104156;28;20028;-84
2022/11/07 00:05:03;;;;;;;40.38;19.75;;;17.00;66.00;;;;;;5082154;28;20081;-85
2022/11/07 00:07:29;;;;;;;31.67;18.33;;;17.20;65.70;;;;;;5083953;28;20043;-92
2022/11/07 00:09:55;;;;;;;36.30;16.63;;;17.40;65.30;;;;;;5085838;28;20090;-93
2022/11/07 00:12:20;;;;;;;52.45;22.60;;;17.70;64.50;;;;;;5099389;28;20031;-84
2022/11/07 00:14:46;;;;;;;74.32;21.80;;;17.90;64.20;;;;;;5095176;28;20035;-84
2022/11/07 00:17:12;;;;;;;34.72;19.02;;;18.00;63.70;;;;;;5084831;28;20015;-94
2022/11/07 00:19:37;;;;;;;33.63;18.15;;;18.10;63.40;;;;;;5080258;28;20469;-85
2022/11/07 00:22:03;;;;;;;41.88;18.83;;;18.10;63.50;;;;;;5078407;28;20421;-93
2022/11/07 00:24:29;;;;;;;42.88;20.52;;;18.10;63.60;;;;;;5079310;28;20036;-85
2022/11/07 00:26:54;;;;;;;45.33;19.10;;;18.10;63.90;;;;;;5085978;28;20054;-94
2022/11/07 00:29:20;;;;;;;31.13;17.40;;;18.10;63.60;;;;;;5101229;28;20020;-84
2022/11/07 00:31:47;;;;;;;37.22;17.90;;;18.10;63.60;;;;;;5088068;28;20095;-86
2022/11/07 00:34:13;;;;;;;42.75;18.30;;;18.20;63.10;;;;;;5096817;28;20081;-86
2022/11/07 00:36:39;;;;;;;37.20;19.33;;;18.10;63.60;;;;;;5086813;28;20019;-92
2022/11/07 00:39:05;;;;;;;27.17;15.68;;;18.30;63.20;;;;;;5098639;28;20023;-92
2022/11/07 00:41:31;;;;;;;28.83;16.10;;;18.20;62.80;;;;;;5081901;28;20020;-90
2022/11/07 00:43:57;;;;;;;28.73;15.02;;;17.20;65.80;;;;;;5101215;28;20465;-89
2022/11/07 00:46:23;;;;;;;27.77;15.60;;;16.30;67.90;;;;;;5077511;28;20021;-87
2022/11/07 00:48:50;;;;;;;30.20;15.57;;;15.60;70.20;;;;;;5077911;28;20039;-88
2022/11/07 00:51:26;;;;;;;28.50;15.32;;;15.30;71.00;;;;;;5109546;28;20361;-92
2022/11/07 00:53:52;;;;;;;33.72;17.65;;;15.30;72.20;;;;;;5084477;28;20044;-85
2022/11/07 00:56:21;;;;;;;30.88;17.08;;;16.00;70.70;;;;;;5098547;28;20023;-85
2022/11/07 00:58:47;;;;;;;35.67;17.77;;;16.60;68.00;;;;;;5082330;28;20039;-87
2022/11/07 01:01:22;;;;;;;33.80;18.30;;;17.10;66.80;;;;;;5091926;28;20046;-94
2022/11/07 01:06:39;;;;;;;30.70;18.10;;;17.60;65.60;;;;;;5096759;28;20099;-85
2022/11/07 01:09:08;;;;;;;34.53;18.75;;;17.80;65.10;;;;;;5079857;28;20553;-95
2022/11/07 01:11:36;;;;;;;37.03;19.77;;;18.00;64.50;;;;;;5093230;28;20104;-85
2022/11/07 01:14:02;;;;;;;32.03;18.92;;;18.20;64.20;;;;;;5096583;28;20028;-94
2022/11/07 01:16:29;;;;;;;34.53;19.52;;;18.30;63.50;;;;;;5082311;28;20024;-85
2022/11/07 01:18:55;;;;;;;37.20;19.80;;;18.40;63.40;;;;;;5092419;28;20024;-91
2022/11/07 01:21:21;;;;;;;33.75;19.27;;;18.50;63.00;;;;;;5108405;28;20024;-93
2022/11/07 01:23:47;;;;;;;35.90;19.52;;;18.40;63.10;;;;;;5078160;28;20032;-88
2022/11/07 01:26:16;;;;;;;35.35;20.05;;;18.30;63.40;;;;;;5076987;28;20027;-93
2022/11/07 01:28:42;;;;;;;32.40;17.70;;;18.10;63.80;;;;;;5077242;28;20123;-92
2022/11/07 01:31:13;;;;;;;28.77;17.23;;;18.10;64.30;;;;;;5079200;28;20059;-93
2022/11/07 01:34:04;;;;;;;34.17;19.48;;;18.00;64.10;;;;;;5110553;28;20063;-90
2022/11/07 01:36:30;;;;;;;37.85;19.98;;;17.90;64.60;;;;;;5099602;28;20035;-92
2022/11/07 01:38:55;;;;;;;44.03;21.65;;;18.10;64.40;;;;;;5098231;28;20023;-92
2022/11/07 01:41:30;;;;;;;42.58;21.98;;;18.30;63.70;;;;;;5097250;28;20057;-91
2022/11/07 01:44:00;;;;;;;35.25;19.23;;;18.40;63.50;;;;;;5097325;28;20023;-94
2022/11/07 01:46:51;;;;;;;36.90;20.10;;;18.50;63.30;;;;;;5097001;28;20030;-94
2022/11/07 01:49:24;;;;;;;45.45;21.38;;;18.50;63.30;;;;;;5102303;28;20027;-93
2022/11/07 01:52:09;;;;;;;32.40;18.63;;;18.50;63.20;;;;;;5097748;28;20035;-93
2022/11/07 01:54:58;;;;;;;36.17;20.50;;;18.60;62.80;;;;;;5097281;28;20048;-94
2022/11/07 01:57:35;;;;;;;35.00;19.30;;;18.70;62.70;;;;;;5096439;28;20028;-85
2022/11/07 02:00:07;;;;;;;36.03;19.02;;;18.70;62.70;;;;;;5096976;28;20023;-94
2022/11/07 02:02:34;;;;;;;34.50;19.63;;;18.70;62.90;;;;;;5101010;28;20096;-93
2022/11/07 02:05:05;;;;;;;37.90;21.05;;;18.70;62.50;;;;;;5101011;28;20019;-86
2022/11/07 02:07:32;;;;;;;37.25;20.10;;;18.60;62.90;;;;;;5097835;28;20024;-86
2022/11/07 02:09:58;;;;;;;30.38;18.50;;;18.60;62.90;;;;;;5097363;28;20146;-91
2022/11/07 02:12:26;;;;;;;36.03;18.13;;;18.70;62.80;;;;;;5094227;28;20020;-92
2022/11/07 02:14:53;;;;;;;33.80;20.05;;;18.70;62.80;;;;;;5076237;28;20036;-91
2022/11/07 02:17:19;;;;;;;35.75;19.10;;;18.50;62.90;;;;;;5092691;28;20103;-92
2022/11/07 02:19:53;;;;;;;31.60;19.05;;;18.40;63.00;;;;;;5081289;28;20030;-91
2022/11/07 02:23:02;;;;;;;42.85;22.27;;;18.40;63.20;;;;;;5095902;28;20047;-92
2022/11/07 02:25:28;;;;;;;34.50;19.60;;;18.50;63.40;;;;;;5068247;28;20577;-89
2022/11/07 02:27:58;;;;;;;28.13;17.38;;;18.60;63.30;;;;;;5106152;28;20028;-91
2022/11/07 02:30:27;;;;;;;40.45;21.65;;;18.20;63.90;;;;;;5077381;28;20027;-93
2022/11/07 02:32:52;;;;;;;34.70;19.00;;;18.00;64.70;;;;;;5059335;28;20077;-86
2022/11/07 02:35:40;;;;;;;40.50;20.85;;;18.10;64.00;;;;;;5084875;28;20023;-85
2022/11/07 02:38:25;;;;;;;37.90;21.35;;;18.20;63.90;;;;;;5079659;28;20103;-89
2022/11/07 02:40:55;;;;;;;30.17;19.30;;;18.20;64.20;;;;;;5087464;28;20038;-88
2022/11/07 02:43:26;;;;;;;29.33;18.90;;;18.40;63.70;;;;;;5080488;28;20020;-90
2022/11/07 02:45:53;;;;;;;30.85;19.25;;;18.00;64.00;;;;;;5071218;28;20047;-93
2022/11/07 02:48:19;;;;;;;33.10;19.65;;;17.20;66.70;;;;;;5081863;28;20052;-91
2022/11/07 02:50:45;;;;;;;34.58;21.83;;;16.90;67.50;;;;;;5089139;28;20051;-93
2022/11/07 02:53:10;;;;;;;35.30;20.85;;;17.20;67.10;;;;;;5080456;28;20031;-92
2022/11/07 02:55:36;;;;;;;31.00;19.63;;;17.40;66.60;;;;;;5090683;28;20393;-93
2022/11/07 02:58:02;;;;;;;33.22;20.00;;;17.60;65.60;;;;;;5078051;28;20025;-93
2022/11/07 03:00:28;;;;;;;33.70;20.30;;;17.80;64.80;;;;;;5076483;28;20027;-88
2022/11/07 03:02:54;;;;;;;36.35;21.40;;;17.80;64.80;;;;;;5094532;28;20023;-94
2022/11/07 03:05:20;;;;;;;35.42;20.95;;;17.90;65.20;;;;;;5077631;28;20161;-90
2022/11/07 03:07:47;;;;;;;37.55;21.83;;;18.00;64.60;;;;;;5079741;28;20102;-94
2022/11/07 03:10:14;;;;;;;36.20;19.77;;;18.20;64.80;;;;;;5078461;28;20040;-94
2022/11/07 03:12:40;;;;;;;31.50;20.08;;;18.30;64.00;;;;;;5075616;28;20031;-92
2022/11/07 03:15:08;;;;;;;38.80;22.33;;;18.50;63.70;;;;;;5077640;28;20028;-93
2022/11/07 03:17:34;;;;;;;35.60;21.85;;;18.60;63.60;;;;;;5097682;28;20015;-93
2022/11/07 03:19:59;;;;;;;36.72;21.80;;;18.50;63.80;;;;;;5099706;28;20110;-86
2022/11/07 03:22:26;;;;;;;32.15;20.50;;;18.50;63.50;;;;;;5086471;28;20097;-85
2022/11/07 03:24:53;;;;;;;40.28;23.45;;;18.40;63.30;;;;;;5078670;28;20404;-94
2022/11/07 03:27:19;;;;;;;34.75;21.30;;;18.40;63.30;;;;;;5076885;28;20016;-93
2022/11/07 03:29:45;;;;;;;31.27;20.10;;;18.50;63.10;;;;;;5077680;28;20031;-92
2022/11/07 03:32:10;;;;;;;34.45;21.13;;;18.50;63.40;;;;;;5079705;28;20122;-90
2022/11/07 03:34:36;;;;;;;36.47;22.30;;;18.50;63.30;;;;;;5101428;28;20032;-85
2022/11/07 03:37:02;;;;;;;35.15;21.90;;;18.60;63.20;;;;;;5117734;28;20023;-93
2022/11/07 03:39:28;;;;;;;31.27;21.10;;;18.60;63.10;;;;;;5079886;28;20046;-92
2022/11/07 03:41:54;;;;;;;29.88;19.42;;;18.50;63.10;;;;;;5088033;28;20028;-91
2022/11/07 03:44:19;;;;;;;29.20;20.13;;;18.50;63.50;;;;;;5076057;28;20029;-85
2022/11/07 03:46:45;;;;;;;36.53;23.13;;;18.40;63.40;;;;;;5091572;28;20020;-86
2022/11/07 03:49:11;;;;;;;32.22;20.90;;;18.50;63.30;;;;;;5097056;28;20094;-92
2022/11/07 03:51:37;;;;;;;30.55;20.55;;;18.40;63.30;;;;;;5099650;28;20031;-95
2022/11/07 03:54:06;;;;;;;33.70;21.83;;;18.50;63.40;;;;;;5086679;28;20046;-89
2022/11/07 03:56:31;;;;;;;29.23;20.45;;;18.50;63.30;;;;;;5081218;28;20523;-93
2022/11/07 03:59:10;;;;;;;31.60;21.45;;;18.40;63.30;;;;;;5082535;28;20036;-85
2022/11/07 04:01:36;;;;;;;34.92;20.70;;;18.00;64.60;;;;;;5081696;28;20024;-92
2022/11/07 04:04:02;;;;;;;31.25;19.10;;;18.10;64.30;;;;;;5080783;28;20031;-94
2022/11/07 04:06:27;;;;;;;30.15;19.77;;;18.10;64.10;;;;;;5080413;28;20100;-93
2022/11/07 04:08:53;;;;;;;27.92;17.85;;;17.90;64.60;;;;;;5080248;28;20039;-93
2022/11/07 04:19:31;;;;;;;33.35;21.77;;;17.40;65.60;;;;;;5118530;28;20030;-93
2022/11/07 04:21:57;;;;;;;29.45;20.95;;;17.60;65.60;;;;;;5099476;28;20023;-90
2022/11/07 04:24:23;;;;;;;29.58;20.65;;;17.70;65.10;;;;;;5098734;28;20063;-94
2022/11/07 04:29:32;;;;;;;30.20;21.50;;;17.80;64.70;;;;;;5117520;28;20080;-92
2022/11/07 04:31:58;;;;;;;32.22;22.60;;;17.80;64.60;;;;;;5100385;28;20016;-85
2022/11/07 04:34:24;;;;;;;37.85;24.17;;;18.00;64.30;;;;;;5101540;28;20032;-93
2022/11/07 04:36:49;;;;;;;38.67;24.13;;;18.20;63.90;;;;;;5102525;28;20048;-86
2022/11/07 04:39:15;;;;;;;34.60;21.70;;;18.30;63.50;;;;;;5100022;28;20053;-90
2022/11/07 04:41:41;;;;;;;34.40;22.05;;;18.30;63.50;;;;;;5100023;28;20076;-93
2022/11/07 04:44:07;;;;;;;31.63;20.52;;;18.10;64.10;;;;;;5099610;28;20023;-94
2022/11/07 04:46:32;;;;;;;35.83;24.23;;;17.70;65.00;;;;;;5094049;28;20023;-92
2022/11/07 04:48:58;;;;;;;29.95;20.80;;;17.70;65.00;;;;;;5078128;28;20194;-89
2022/11/07 04:51:24;;;;;;;33.95;22.23;;;17.70;65.00;;;;;;5078121;28;20027;-93
2022/11/07 04:53:53;;;;;;;34.10;21.90;;;17.90;64.60;;;;;;5093864;28;20036;-88
2022/11/07 04:56:19;;;;;;;32.45;22.27;;;18.10;64.20;;;;;;5078201;28;20213;-93
2022/11/07 04:58:45;;;;;;;34.60;21.50;;;18.30;64.00;;;;;;5082155;28;20134;-93
2022/11/07 05:01:11;;;;;;;33.25;22.95;;;18.00;64.60;;;;;;5092442;28;20472;-94
2022/11/07 05:03:36;;;;;;;31.85;22.02;;;18.00;64.70;;;;;;5096004;28;20034;-92
2022/11/07 05:06:03;;;;;;;33.95;22.67;;;18.10;63.90;;;;;;5084945;28;20035;-91
2022/11/07 05:08:30;;;;;;;38.22;24.63;;;18.00;64.20;;;;;;5077781;28;20048;-92
2022/11/07 05:10:55;;;;;;;35.38;23.77;;;17.90;64.80;;;;;;5093209;28;20050;-94
2022/11/07 05:13:21;;;;;;;37.38;23.92;;;17.90;65.10;;;;;;5093637;28;20139;-86
2022/11/07 05:15:48;;;;;;;37.00;24.95;;;17.90;64.80;;;;;;5084459;28;20024;-93
2022/11/07 05:18:14;;;;;;;38.03;24.27;;;18.10;64.50;;;;;;5090706;28;20020;-92
2022/11/07 05:20:40;;;;;;;42.67;25.77;;;18.30;64.00;;;;;;5077483;28;20031;-92
2022/11/07 05:23:13;;;;;;;38.92;24.20;;;18.30;64.10;;;;;;5077086;28;20039;-86
2022/11/07 05:25:52;;;;;;;31.40;22.77;;;18.50;63.80;;;;;;5074075;28;20024;-92
2022/11/07 05:28:26;;;;;;;38.15;26.30;;;18.60;63.00;;;;;;5077256;28;20023;-91
2022/11/07 05:30:52;;;;;;;73.82;38.22;;;18.40;64.30;;;;;;5077016;28;20016;-93
2022/11/07 05:33:19;;;;;;;50.22;29.15;;;18.40;64.40;;;;;;5080729;28;20043;-87
2022/11/07 05:35:45;;;;;;;36.50;25.42;;;18.60;64.00;;;;;;5084354;28;20024;-86
2022/11/07 05:38:11;;;;;;;32.45;21.27;;;18.80;63.60;;;;;;5099566;28;20027;-89
2022/11/07 05:40:38;;;;;;;35.55;23.40;;;18.80;63.20;;;;;;5080302;28;20028;-93
2022/11/07 05:43:09;;;;;;;39.40;26.65;;;18.40;64.30;;;;;;5078956;28;20028;-91
2022/11/07 05:45:36;;;;;;;54.33;36.60;;;18.50;63.90;;;;;;5079197;28;20020;-92
2022/11/07 05:48:05;;;;;;;34.83;23.83;;;18.70;63.50;;;;;;5077306;28;20370;-89
2022/11/07 05:50:31;;;;;;;39.22;24.63;;;18.20;63.90;;;;;;5077537;28;20028;-93
2022/11/07 05:52:57;;;;;;;40.58;26.65;;;17.30;66.10;;;;;;5077713;28;20039;-90
2022/11/07 05:55:23;;;;;;;40.63;25.65;;;17.30;67.20;;;;;;5089830;28;20020;-93
2022/11/07 05:57:50;;;;;;;44.45;29.02;;;17.60;65.80;;;;;;5090011;28;20072;-86
2022/11/07 06:00:16;;;;;;;57.53;36.00;;;18.00;64.80;;;;;;5081489;28;20053;-93
2022/11/07 06:02:43;;;;;;;58.85;41.28;;;18.30;63.90;;;;;;5076659;28;20024;-92
2022/11/07 06:05:09;;;;;;;49.22;32.97;;;18.50;63.20;;;;;;5092864;28;20026;-90
2022/11/07 06:07:36;;;;;;;35.17;25.85;;;18.60;62.60;;;;;;5077595;28;20032;-92
2022/11/07 06:10:04;;;;;;;33.72;23.88;;;18.10;64.10;;;;;;5087348;28;20048;-92
2022/11/07 06:12:30;;;;;;;41.67;28.60;;;17.50;65.80;;;;;;5091668;28;20384;-90
2022/11/07 06:14:55;;;;;;;43.92;28.92;;;17.60;66.40;;;;;;5080360;28;20038;-90
2022/11/07 06:17:21;;;;;;;46.58;31.25;;;17.90;65.20;;;;;;5088750;27;20039;-92
2022/11/07 06:19:50;;;;;;;46.08;30.02;;;18.30;64.40;;;;;;5097045;28;20027;-93
2022/11/07 06:22:15;;;;;;;37.67;23.52;;;18.50;64.10;;;;;;5096998;28;20111;-92
2022/11/07 06:39:54;;;;;;;38.30;22.80;;;19.10;63.10;;;;;;5122678;27;20054;-84
2022/11/07 06:42:23;;;;;;;38.65;24.92;;;19.00;63.40;;;;;;5091351;28;20028;-87
2022/11/07 06:44:49;;;;;;;38.33;24.85;;;18.90;63.90;;;;;;5097364;28;20589;-83
2022/11/07 06:47:18;;;;;;;35.28;21.88;;;19.10;63.50;;;;;;5095883;28;20034;-81
2022/11/07 06:49:43;;;;;;;39.67;26.08;;;19.20;62.80;;;;;;5090787;28;20372;-84
2022/11/07 06:52:09;;;;;;;52.80;28.45;;;19.10;63.40;;;;;;5098616;28;20488;-85
2022/11/07 06:54:35;;;;;;;55.65;30.52;;;19.20;63.20;;;;;;5100299;28;20042;-86
2022/11/07 06:57:01;;;;;;;51.33;30.92;;;19.30;62.90;;;;;;5098638;28;20095;-94
2022/11/07 06:59:32;;;;;;;43.97;26.75;;;19.50;62.60;;;;;;5097434;28;20031;-93
2022/11/07 07:01:58;;;;;;;46.00;28.38;;;19.70;62.80;;;;;;5097314;28;20016;-90
2022/11/07 07:04:24;;;;;;;56.33;30.70;;;19.80;62.50;;;;;;5104922;28;20034;-94
2022/11/07 07:06:50;;;;;;;62.60;32.90;;;19.90;61.90;;;;;;5116043;28;20019;-88
2022/11/07 07:09:16;;;;;;;47.15;27.42;;;19.90;61.80;;;;;;5106949;28;20022;-84
2022/11/07 07:11:43;;;;;;;49.88;30.45;;;19.60;62.50;;;;;;5090128;28;20488;-84
2022/11/07 07:14:09;;;;;;;63.08;33.47;;;19.60;62.60;;;;;;5076239;28;20123;-83
2022/11/07 07:16:35;;;;;;;42.45;26.42;;;19.80;62.40;;;;;;5084423;28;20035;-86
2022/11/07 07:19:01;;;;;;;47.85;29.80;;;19.80;62.70;;;;;;5086522;28;20032;-93
2022/11/07 07:21:27;;;;;;;48.05;28.92;;;19.50;63.00;;;;;;5077817;28;20491;-92
2022/11/07 07:23:52;;;;;;;47.45;27.67;;;19.50;63.20;;;;;;5076498;28;20028;-94
2022/11/07 07:26:18;;;;;;;56.25;31.70;;;19.70;62.80;;;;;;5077785;28;20020;-84
2022/11/07 07:28:44;;;;;;;47.75;27.95;;;19.90;62.60;;;;;;5079464;28;20028;-92
2022/11/07 07:31:13;;;;;;;56.53;30.92;;;20.00;62.10;;;;;;5079876;28;20024;-90
2022/11/07 07:33:39;;;;;;;48.00;28.58;;;20.00;61.70;;;;;;5079282;28;20040;-91
2022/11/07 07:36:05;;;;;;;50.30;28.23;;;20.10;61.90;;;;;;5090865;28;20019;-85
2022/11/07 07:38:31;;;;;;;50.03;29.73;;;20.10;61.80;;;;;;5100056;28;20430;-91
2022/11/07 07:55:34;;;;;;;43.55;25.73;;;20.00;62.10;;;;;;6073570;22;20080;-89
2022/11/07 07:58:00;;;;;;;45.22;26.45;;;20.10;62.50;;;;;;5058691;28;20042;-91
2022/11/07 08:00:26;;;;;;;49.15;27.27;;;20.20;62.20;;;;;;5076725;28;20372;-91
2022/11/07 08:03:00;;;;;;;48.33;28.60;;;20.30;62.10;;;;;;5059414;28;20478;-90
2022/11/07 08:05:25;;;;;;;46.33;26.50;;;20.40;61.60;;;;;;5075786;28;20044;-91
2022/11/07 08:07:51;;;;;;;46.33;26.48;;;20.50;61.70;;;;;;5095821;28;20052;-89
2022/11/07 08:10:18;;;;;;;45.70;26.48;;;20.60;61.60;;;;;;5058546;28;20112;-86
2022/11/07 08:12:45;;;;;;;41.22;24.67;;;20.70;61.60;;;;;;5058517;28;20028;-85
2022/11/07 08:15:12;;;;;;;40.90;25.02;;;20.90;61.40;;;;;;5054829;28;20587;-84
2022/11/07 08:17:38;;;;;;;39.97;23.83;;;20.80;61.70;;;;;;5074894;28;20421;-84
2022/11/07 08:20:04;;;;;;;38.88;23.55;;;20.70;62.10;;;;;;5058296;28;20119;-89
2022/11/07 08:22:30;;;;;;;40.20;23.60;;;20.80;62.00;;;;;;5054155;28;20021;-92
2022/11/07 08:24:55;;;;;;;30.95;20.95;;;21.10;61.50;;;;;;5046896;28;20378;-91
2022/11/07 08:27:21;;;;;;;35.83;22.52;;;21.40;60.70;;;;;;5056976;28;20021;-92
2022/11/07 08:29:47;;;;;;;33.10;20.45;;;21.40;60.80;;;;;;5077309;28;20028;-93
2022/11/07 08:32:12;;;;;;;37.30;21.83;;;21.70;60.70;;;;;;5078248;28;20028;-92
2022/11/07 08:34:38;;;;;;;36.95;22.95;;;21.90;60.40;;;;;;5078262;28;20503;-93
2022/11/07 08:37:04;;;;;;;32.55;20.85;;;22.10;60.10;;;;;;5077962;28;20465;-86
2022/11/07 08:39:29;;;;;;;33.25;20.98;;;22.30;60.00;;;;;;5078382;28;20034;-96
2022/11/07 08:41:55;;;;;;;33.13;19.23;;;22.40;59.90;;;;;;5077882;28;20027;-93
2022/11/07 08:44:21;;;;;;;28.85;18.98;;;22.30;59.80;;;;;;5077072;28;20020;-85
2022/11/07 08:46:46;;;;;;;28.80;17.95;;;22.30;60.00;;;;;;5083223;28;20035;-82
2022/11/07 08:49:12;;;;;;;23.80;15.00;;;22.20;59.40;;;;;;5096189;28;20020;-86
2022/11/07 08:51:38;;;;;;;25.60;15.23;;;22.20;59.40;;;;;;5096251;28;20380;-95
2022/11/07 08:54:03;;;;;;;24.25;16.10;;;22.20;58.90;;;;;;5114573;28;20035;-90
2022/11/07 08:56:29;;;;;;;20.85;13.32;;;22.20;58.80;;;;;;5095093;28;20500;-95
2022/11/07 08:58:55;;;;;;;21.50;12.98;;;22.10;58.20;;;;;;5098010;28;20044;-96
2022/11/07 09:01:21;;;;;;;20.17;12.00;;;21.80;58.90;;;;;;5098169;28;20472;-95
2022/11/07 09:03:46;;;;;;;25.02;13.05;;;21.40;58.70;;;;;;5099100;28;20024;-93
2022/11/07 09:06:12;;;;;;;22.13;11.77;;;21.20;59.40;;;;;;5097655;28;20028;-93
2022/11/07 09:08:39;;;;;;;16.70;10.48;;;21.00;58.90;;;;;;5083284;28;20020;-95
2022/11/07 09:11:05;;;;;;;21.38;11.57;;;20.90;59.20;;;;;;5101175;28;20024;-88
2022/11/07 09:13:32;;;;;;;16.30;9.70;;;20.60;59.70;;;;;;5098848;28;20032;-91
2022/11/07 09:16:00;;;;;;;16.88;9.70;;;20.60;59.30;;;;;;5097986;28;20020;-89
2022/11/07 09:18:27;;;;;;;19.80;10.35;;;20.50;59.30;;;;;;5098909;28;20031;-88
2022/11/07 09:20:53;;;;;;;16.38;9.00;;;20.50;59.20;;;;;;5098433;28;20061;-96
2022/11/07 09:23:19;;;;;;;12.95;8.45;;;20.50;58.50;;;;;;5097362;28;20047;-88
2022/11/07 09:25:45;;;;;;;19.00;9.93;;;20.30;58.20;;;;;;5096790;28;20008;-85
2022/11/07 09:28:12;;;;;;;15.90;9.38;;;20.20;58.90;;;;;;5096844;28;20045;-90
2022/11/07 09:30:38;;;;;;;15.63;9.20;;;20.30;58.50;;;;;;5079203;28;20032;-86
2022/11/07 09:33:04;;;;;;;14.75;9.50;;;20.30;58.30;;;;;;5080269;28;20047;-90
2022/11/07 09:35:29;;;;;;;17.35;9.85;;;20.30;58.90;;;;;;5099329;28;20028;-95
2022/11/07 09:37:55;;;;;;;15.13;9.10;;;20.30;59.10;;;;;;5095329;28;20039;-94
2022/11/07 09:40:26;;;;;;;16.63;9.30;;;20.30;59.10;;;;;;5096201;28;20031;-86
2022/11/07 09:43:11;;;;;;;14.65;9.00;;;20.20;59.10;;;;;;5095131;28;20047;-92
2022/11/07 09:45:50;;;;;;;16.20;7.95;;;20.20;59.30;;;;;;5095268;28;20027;-90
2022/11/07 09:48:23;;;;;;;13.05;7.78;;;19.80;58.60;;;;;;5096800;28;20514;-87
2022/11/07 09:50:50;;;;;;;12.90;8.15;;;19.80;59.30;;;;;;5096527;28;20541;-92
2022/11/07 09:53:32;;;;;;;12.73;8.43;;;19.60;59.30;;;;;;5095080;28;20388;-88
2022/11/07 09:56:02;;;;;;;13.32;8.10;;;19.80;59.30;;;;;;5094352;28;20044;-94
2022/11/07 09:58:46;;;;;;;12.50;7.97;;;20.20;59.10;;;;;;5095180;28;20031;-88
2022/11/07 10:01:17;;;;;;;15.63;8.43;;;20.20;58.30;;;;;;5098161;28;20039;-94
2022/11/07 10:03:44;;;;;;;11.57;7.57;;;20.00;58.30;;;;;;5095406;28;20028;-86
2022/11/07 10:06:32;;;;;;;14.10;7.22;;;20.00;58.80;;;;;;5095285;28;20022;-90
2022/11/07 10:09:24;;;;;;;11.35;7.30;;;20.00;58.20;;;;;;5095123;28;20028;-93
2022/11/07 10:11:58;;;;;;;13.73;7.68;;;19.70;59.00;;;;;;5094991;28;20020;-96
2022/11/07 10:14:33;;;;;;;13.07;7.68;;;19.80;59.60;;;;;;5094305;28;20069;-93
2022/11/07 10:17:30;;;;;;;13.88;7.35;;;19.90;58.60;;;;;;5094036;28;20032;-87
2022/11/07 10:20:07;;;;;;;13.65;7.65;;;20.00;58.60;;;;;;5094306;28;20020;-92
2022/11/07 10:23:03;;;;;;;13.15;7.07;;;20.20;58.20;;;;;;5094673;28;20036;-93
2022/11/07 10:25:43;;;;;;;12.85;7.70;;;20.40;58.30;;;;;;5094127;28;20027;-81
2022/11/07 10:28:16;;;;;;;14.77;7.88;;;20.20;58.00;;;;;;5094467;28;20020;-91
2022/11/07 10:30:50;;;;;;;12.90;8.07;;;20.40;57.80;;;;;;5095913;28;20028;-92
2022/11/07 10:33:31;;;;;;;15.07;9.50;;;20.40;57.80;;;;;;5094376;28;20032;-92
2022/11/07 10:36:06;;;;;;;30.23;18.50;;;20.10;57.10;;;;;;5094663;28;20114;-89
2022/11/07 10:38:39;;;;;;;20.05;13.70;;;19.70;58.50;;;;;;5096396;28;20024;-87
2022/11/07 10:41:13;;;;;;;14.88;8.85;;;19.70;58.30;;;;;;5094779;28;20069;-93
2022/11/07 10:43:51;;;;;;;14.82;7.45;;;19.80;58.10;;;;;;5096300;28;20031;-94
2022/11/07 10:46:36;;;;;;;12.75;6.50;;;19.70;58.20;;;;;;5094119;28;20540;-87
2022/11/07 10:49:03;;;;;;;9.20;5.70;;;19.30;57.00;;;;;;5092771;28;20024;-87
2022/11/07 10:51:37;;;;;;;9.05;5.03;;;18.90;58.70;;;;;;5093192;28;20021;-92
2022/11/07 10:54:17;;;;;;;7.40;4.85;;;18.80;58.60;;;;;;5092839;28;20553;-92
2022/11/07 10:56:44;;;;;;;8.55;5.22;;;18.90;58.90;;;;;;5092801;28;20135;-92
2022/11/07 10:59:20;;;;;;;10.63;5.50;;;18.90;58.30;;;;;;5092316;28;20039;-88
2022/11/07 11:01:53;;;;;;;11.32;5.18;;;19.10;58.80;;;;;;5095754;28;20076;-91
2022/11/07 11:04:21;;;;;;;9.52;5.55;;;19.20;58.20;;;;;;5096735;28;20020;-88
2022/11/07 11:06:56;;;;;;;9.88;5.70;;;19.20;58.50;;;;;;5098155;28;20115;-89
2022/11/07 11:09:32;;;;;;;11.05;5.63;;;19.10;57.60;;;;;;5097118;28;20020;-89
2022/11/07 11:12:10;;;;;;;9.32;5.40;;;19.10;58.50;;;;;;5096362;28;20073;-89
2022/11/07 11:14:36;;;;;;;10.05;5.82;;;19.20;58.60;;;;;;5096566;28;20032;-90
2022/11/07 11:17:02;;;;;;;10.18;5.60;;;19.30;58.70;;;;;;5096560;28;20384;-90
2022/11/07 11:19:52;;;;;;;10.68;6.00;;;19.50;58.70;;;;;;5096572;28;20132;-91
2022/11/07 11:22:22;;;;;;;11.65;5.75;;;19.60;57.80;;;;;;5096758;28;20024;-90
2022/11/07 11:25:02;;;;;;;10.48;5.95;;;19.40;59.00;;;;;;5097086;28;20392;-93
2022/11/07 11:27:31;;;;;;;10.38;6.47;;;19.50;58.80;;;;;;5096553;28;20036;-88
2022/11/07 11:30:10;;;;;;;12.70;6.53;;;19.80;58.10;;;;;;5096547;28;20486;-91
2022/11/07 11:32:57;;;;;;;11.25;6.50;;;19.70;58.10;;;;;;5097833;28;20027;-89
2022/11/07 11:35:37;;;;;;;10.50;6.05;;;19.80;58.70;;;;;;5096839;28;20032;-91
2022/11/07 11:38:12;;;;;;;11.23;6.68;;;19.90;58.30;;;;;;5096964;28;20024;-92
2022/11/07 11:40:44;;;;;;;11.70;6.78;;;19.80;58.60;;;;;;5095963;28;20024;-90
2022/11/07 11:43:23;;;;;;;13.15;6.93;;;20.10;58.50;;;;;;5096325;28;20016;-88
2022/11/07 11:46:09;;;;;;;11.18;7.35;;;20.20;58.00;;;;;;5096236;28;20508;-89
2022/11/07 11:48:59;;;;;;;10.57;6.65;;;20.10;58.40;;;;;;5035428;28;20029;-96
2022/11/07 11:51:43;;;;;;;13.57;6.90;;;20.10;57.90;;;;;;5035048;28;20036;-93
2022/11/07 11:54:11;;;;;;;13.10;7.20;;;20.00;57.70;;;;;;5018551;28;20052;-93
2022/11/07 11:56:48;;;;;;;12.25;7.03;;;19.70;58.60;;;;;;5018702;28;20407;-95
2022/11/07 11:59:22;;;;;;;11.57;6.57;;;19.70;59.70;;;;;;5018381;28;20037;-91
2022/11/07 12:02:08;;;;;;;21.75;12.13;;;20.00;59.20;;;;;;5018767;28;20518;-88
2022/11/07 12:04:45;;;;;;;10.52;6.72;;;19.90;58.80;;;;;;5018741;28;20509;-88
2022/11/07 12:07:37;;;;;;;11.32;6.32;;;19.60;59.70;;;;;;5018902;28;20402;-94
2022/11/07 12:10:10;;;;;;;11.32;6.07;;;19.50;59.40;;;;;;5019089;28;20025;-91
2022/11/07 12:12:57;;;;;;;10.63;6.53;;;19.10;60.10;;;;;;5017443;28;20033;-92
2022/11/07 12:15:29;;;;;;;9.55;6.03;;;19.10;60.00;;;;;;5018291;28;20047;-92
2022/11/07 12:18:00;;;;;;;10.25;6.45;;;19.10;60.00;;;;;;5018552;28;20022;-93
2022/11/07 12:20:58;;;;;;;10.23;5.72;;;19.10;60.10;;;;;;5018255;28;20514;-94
2022/11/07 12:23:57;;;;;;;12.48;6.97;;;19.20;59.80;;;;;;5018103;28;20486;-89
2022/11/07 12:26:42;;;;;;;14.57;7.20;;;19.20;59.90;;;;;;5082013;28;20039;-86
2022/11/07 12:29:31;;;;;;;14.48;7.13;;;19.30;60.60;;;;;;5098858;28;20032;-90
2022/11/07 12:32:26;;;;;;;11.60;7.45;;;19.60;60.30;;;;;;5099441;28;20076;-94
2022/11/07 12:35:20;;;;;;;12.18;7.15;;;19.90;60.10;;;;;;5098314;28;20126;-91
2022/11/07 12:38:07;;;;;;;11.38;7.00;;;20.30;59.50;;;;;;5080646;28;20118;-92
2022/11/07 12:40:57;;;;;;;13.23;7.28;;;20.60;58.20;;;;;;5098651;28;20070;-90
2022/11/07 12:43:47;;;;;;;;;;;20.40;58.40;;;;;;5098712;28;20387;-92
2022/11/07 12:46:33;;;;;;;10.25;6.05;;;20.50;58.30;;;;;;5098166;28;19915;-93
2022/11/07 12:49:37;;;;;;;10.73;6.00;;;20.60;57.50;;;;;;5097906;28;20109;-83
2022/11/07 12:52:22;;;;;;;9.95;6.03;;;20.70;57.70;;;;;;5093059;28;20468;-91
2022/11/07 12:55:29;;;;;;;8.20;5.50;;;21.00;57.40;;;;;;5098012;28;20039;-86
2022/11/07 12:57:55;;;;;;;9.60;5.10;;;21.30;56.50;;;;;;5094527;28;20111;-91
2022/11/07 13:00:27;;;;;;;10.27;5.50;;;21.50;55.70;;;;;;5094823;28;20483;-93
2022/11/07 13:02:55;;;;;;;9.43;5.95;;;21.50;55.70;;;;;;5094416;28;20020;-94
2022/11/07 13:06:00;;;;;;;23.13;12.82;;;21.50;55.30;;;;;;5094130;28;20028;-89
2022/11/07 13:08:44;;;;;;;54.80;23.10;;;21.40;55.50;;;;;;5094392;28;20027;-92
2022/11/07 13:11:37;;;;;;;33.58;15.13;;;21.30;55.40;;;;;;5094000;28;20021;-94
2022/11/07 13:14:28;;;;;;;30.50;13.30;;;21.40;55.70;;;;;;5094182;28;20433;-92
2022/11/07 13:16:56;;;;;;;;;;;21.20;55.90;;;;;;5094614;28;20032;-83
2022/11/07 13:19:33;;;;;;;13.60;7.00;;;21.00;56.00;;;;;;5095322;28;19951;-95
2022/11/07 13:22:19;;;;;;;7.65;4.95;;;20.90;56.90;;;;;;5094298;28;20016;-90
2022/11/07 13:25:24;;;;;;;8.02;4.68;;;20.70;56.50;;;;;;5093640;28;20031;-93
2022/11/07 13:27:55;;;;;;;8.85;4.65;;;20.60;56.50;;;;;;5094380;28;20024;-95
2022/11/07 13:30:22;;;;;;;7.35;4.47;;;20.70;57.10;;;;;;5093914;28;20422;-94
2022/11/07 13:32:50;;;;;;;7.35;4.60;;;20.70;56.50;;;;;;5094266;28;20024;-91